Time;durP1;ratioP1;P1;durP2;ratioP2;P2;SDS_P1;SDS_P2;PMS_P1;PMS_P2;Temp;Humidity;BMP_temperature;BMP_pressure;BME280_temperature;BME280_humidity;BME280_pressure;Samples;Min_cycle;Max_cycle;Signal;HPM_P1;HPM_P2
2021/03/07 00:00:06;;;;;;;5.87;4.40;;;10.70;46.80;;;;;;5095423;28;20441;-65
2021/03/07 00:02:33;;;;;;;6.43;3.37;;;10.70;46.70;;;;;;5096035;27;20460;-65
2021/03/07 00:05:00;;;;;;;4.93;3.57;;;10.70;46.80;;;;;;5095466;28;20433;-65
2021/03/07 00:07:27;;;;;;;6.93;3.80;;;10.70;46.80;;;;;;5095248;28;20476;-65
2021/03/07 00:09:54;;;;;;;4.80;3.30;;;10.70;46.80;;;;;;5094969;28;20465;-65
2021/03/07 00:12:21;;;;;;;5.00;3.50;;;10.70;46.60;;;;;;5095749;28;20447;-65
2021/03/07 00:14:48;;;;;;;4.27;3.33;;;10.70;46.60;;;;;;5094438;28;20471;-65
2021/03/07 00:17:15;;;;;;;5.93;3.40;;;10.70;46.60;;;;;;5095118;28;20498;-65
2021/03/07 00:19:42;;;;;;;6.60;3.50;;;10.70;46.60;;;;;;5095454;27;20435;-65
2021/03/07 00:22:09;;;;;;;5.70;3.87;;;10.70;46.60;;;;;;5095204;28;20535;-65
2021/03/07 00:24:36;;;;;;;7.63;3.60;;;10.70;46.60;;;;;;5093784;28;20457;-65
2021/03/07 00:27:03;;;;;;;3.87;3.33;;;10.70;46.60;;;;;;5094973;28;20441;-65
2021/03/07 00:29:30;;;;;;;4.27;3.87;;;10.70;46.40;;;;;;5116337;27;20461;-65
2021/03/07 00:31:56;;;;;;;3.50;3.17;;;10.70;46.40;;;;;;5135958;27;20431;-66
2021/03/07 00:34:24;;;;;;;4.83;3.20;;;10.70;46.50;;;;;;5135678;27;20442;-65
2021/03/07 00:36:51;;;;;;;6.57;3.63;;;10.70;46.40;;;;;;5135810;27;20538;-65
2021/03/07 00:39:18;;;;;;;4.47;2.87;;;10.70;46.40;;;;;;5116798;27;20567;-65
2021/03/07 00:41:45;;;;;;;6.07;2.80;;;10.70;46.40;;;;;;5115441;28;20504;-66
2021/03/07 00:44:12;;;;;;;4.03;2.80;;;10.70;46.40;;;;;;5114674;28;20553;-65
2021/03/07 00:46:39;;;;;;;4.00;2.87;;;10.70;46.50;;;;;;5120909;27;20443;-66
2021/03/07 00:49:06;;;;;;;5.03;3.20;;;10.70;46.40;;;;;;5135460;27;20496;-65
2021/03/07 00:51:34;;;;;;;3.20;2.90;;;10.70;46.40;;;;;;5135116;27;20435;-65
2021/03/07 00:54:01;;;;;;;3.40;2.87;;;10.70;46.40;;;;;;5135497;27;20494;-65
2021/03/07 00:56:28;;;;;;;5.87;3.40;;;10.70;46.40;;;;;;5106518;27;20475;-66
2021/03/07 00:58:55;;;;;;;3.23;2.73;;;10.60;46.40;;;;;;5094604;28;20528;-65
2021/03/07 01:01:22;;;;;;;4.80;2.80;;;10.70;46.40;;;;;;5094483;28;20441;-63
2021/03/07 01:03:49;;;;;;;3.27;2.60;;;10.70;46.30;;;;;;5094674;28;20445;-65
2021/03/07 01:06:15;;;;;;;2.93;2.63;;;10.70;46.30;;;;;;5093536;28;20515;-65
2021/03/07 01:08:43;;;;;;;3.20;2.70;;;10.70;46.30;;;;;;5094205;28;20477;-65
2021/03/07 01:11:10;;;;;;;2.63;2.43;;;10.70;46.20;;;;;;5094356;28;20479;-65
2021/03/07 01:13:37;;;;;;;3.00;2.70;;;10.70;46.20;;;;;;5094624;28;20476;-65
2021/03/07 01:16:04;;;;;;;2.47;2.27;;;10.80;46.20;;;;;;5093753;28;20441;-66
2021/03/07 01:18:32;;;;;;;2.80;2.50;;;10.80;46.20;;;;;;5093872;28;20515;-65
2021/03/07 01:20:58;;;;;;;2.57;2.37;;;10.80;46.30;;;;;;5094181;28;20441;-65
2021/03/07 01:23:27;;;;;;;3.63;2.20;;;10.80;46.20;;;;;;5094832;28;20561;-66
2021/03/07 01:25:55;;;;;;;2.60;2.23;;;10.80;46.30;;;;;;5093685;28;20525;-65
2021/03/07 01:28:22;;;;;;;2.80;2.27;;;10.70;46.20;;;;;;5094019;28;20464;-66
2021/03/07 01:30:49;;;;;;;2.00;1.90;;;10.80;46.00;;;;;;5093809;28;20441;-65
2021/03/07 01:33:16;;;;;;;2.40;2.20;;;10.80;46.10;;;;;;5094017;28;20457;-65
2021/03/07 01:35:42;;;;;;;3.67;2.27;;;10.70;46.10;;;;;;5093922;28;20543;-66
2021/03/07 01:38:09;;;;;;;2.50;1.97;;;10.80;46.10;;;;;;5093582;28;20514;-65
2021/03/07 01:40:38;;;;;;;3.13;2.30;;;10.80;46.00;;;;;;5094208;27;20524;-65
2021/03/07 01:43:05;;;;;;;3.03;2.10;;;10.80;46.00;;;;;;5093702;28;20503;-65
2021/03/07 01:45:33;;;;;;;2.37;2.17;;;10.70;46.00;;;;;;5093276;28;20501;-66
2021/03/07 01:48:01;;;;;;;4.40;2.23;;;10.80;46.00;;;;;;5095246;27;20504;-65
2021/03/07 01:50:29;;;;;;;1.97;1.87;;;10.70;46.00;;;;;;5134498;27;20477;-65
2021/03/07 01:52:56;;;;;;;2.47;2.10;;;10.80;45.90;;;;;;5134722;27;20487;-65
2021/03/07 01:55:24;;;;;;;2.47;2.27;;;10.80;45.90;;;;;;5134046;27;20462;-65
2021/03/07 01:57:59;;;;;;;1.87;1.70;;;10.80;46.00;;;;;;5133877;27;20435;-65
2021/03/07 02:00:26;;;;;;;1.97;1.87;;;10.80;45.80;;;;;;5134472;27;20503;-65
2021/03/07 02:02:53;;;;;;;2.03;1.93;;;10.70;45.80;;;;;;5134602;27;20470;-65
2021/03/07 02:05:21;;;;;;;1.63;1.53;;;10.80;46.00;;;;;;5134018;27;20531;-65
2021/03/07 02:07:48;;;;;;;4.00;2.20;;;10.80;46.00;;;;;;5133883;27;20549;-65
2021/03/07 02:10:16;;;;;;;2.03;1.83;;;10.80;45.90;;;;;;5134850;27;20499;-65
2021/03/07 02:12:47;;;;;;;2.47;2.27;;;10.80;45.90;;;;;;5134304;28;20438;-65
2021/03/07 02:15:14;;;;;;;2.23;2.07;;;10.80;45.90;;;;;;5127593;27;20540;-65
2021/03/07 02:17:42;;;;;;;2.23;2.07;;;10.70;45.90;;;;;;5114063;28;20475;-65
2021/03/07 02:20:10;;;;;;;2.90;2.47;;;10.80;45.90;;;;;;5114224;28;20435;-65
2021/03/07 02:22:39;;;;;;;2.30;2.10;;;10.80;45.80;;;;;;5113713;28;20515;-65
2021/03/07 02:25:08;;;;;;;2.23;1.80;;;10.80;45.90;;;;;;5098246;28;20492;-65
2021/03/07 02:27:35;;;;;;;2.10;1.90;;;10.70;45.90;;;;;;5093507;28;20495;-65
2021/03/07 02:30:02;;;;;;;2.43;1.80;;;10.80;45.90;;;;;;5093437;28;20464;-66
2021/03/07 02:32:29;;;;;;;4.87;2.50;;;10.80;45.80;;;;;;5096384;28;20555;-65
2021/03/07 02:34:58;;;;;;;3.83;2.40;;;10.70;45.90;;;;;;5113427;28;20454;-65
2021/03/07 02:37:24;;;;;;;2.07;1.90;;;10.80;45.80;;;;;;5113570;28;20462;-65
2021/03/07 02:39:52;;;;;;;3.30;2.57;;;10.70;45.90;;;;;;5113156;28;20487;-65
2021/03/07 02:42:22;;;;;;;3.40;2.13;;;10.70;46.50;;;;;;5115561;27;20504;-65
2021/03/07 02:44:52;;;;;;;2.53;2.30;;;10.80;45.90;;;;;;5115740;28;20459;-65
2021/03/07 02:47:19;;;;;;;2.30;2.10;;;10.70;45.80;;;;;;5117636;28;20451;-65
2021/03/07 02:49:47;;;;;;;3.20;2.30;;;10.70;45.90;;;;;;5117129;28;20463;-65
2021/03/07 02:52:13;;;;;;;2.47;2.27;;;10.70;45.80;;;;;;5109476;27;20443;-65
2021/03/07 02:54:40;;;;;;;3.20;2.40;;;10.70;45.70;;;;;;5116745;28;20468;-65
2021/03/07 02:57:07;;;;;;;3.43;2.27;;;10.70;45.70;;;;;;5108868;28;20452;-65
2021/03/07 02:59:35;;;;;;;3.13;2.20;;;10.70;45.80;;;;;;5110388;27;20498;-65
2021/03/07 03:02:03;;;;;;;4.10;2.53;;;10.70;46.30;;;;;;5096782;28;20429;-63
2021/03/07 03:04:30;;;;;;;2.00;1.90;;;10.70;45.80;;;;;;5096307;28;20445;-63
2021/03/07 03:06:57;;;;;;;2.80;2.20;;;10.70;45.80;;;;;;5096488;28;20464;-63
2021/03/07 03:09:24;;;;;;;2.53;2.30;;;10.70;45.80;;;;;;5096812;28;20468;-63
2021/03/07 03:11:52;;;;;;;3.00;2.30;;;10.70;45.70;;;;;;5097370;28;20433;-64
2021/03/07 03:14:19;;;;;;;2.20;2.10;;;10.70;45.70;;;;;;5095962;28;20444;-65
2021/03/07 03:16:50;;;;;;;3.70;2.23;;;10.70;45.60;;;;;;5097014;28;20510;-66
2021/03/07 03:19:18;;;;;;;2.60;1.87;;;10.70;45.60;;;;;;5096545;28;20441;-65
2021/03/07 03:21:45;;;;;;;2.20;2.00;;;10.70;45.70;;;;;;5096610;28;20500;-65
2021/03/07 03:24:12;;;;;;;2.50;2.30;;;10.70;45.70;;;;;;5095928;28;20441;-63
2021/03/07 03:26:39;;;;;;;2.40;2.23;;;10.70;45.70;;;;;;5096250;27;20469;-63
2021/03/07 03:29:06;;;;;;;1.87;1.77;;;10.60;45.70;;;;;;5096395;28;20471;-63
2021/03/07 03:31:37;;;;;;;3.47;2.60;;;10.70;45.70;;;;;;5096387;28;20417;-63
2021/03/07 03:34:06;;;;;;;2.80;2.47;;;10.70;45.70;;;;;;5096249;28;20444;-63
2021/03/07 03:36:33;;;;;;;1.80;1.70;;;10.70;45.80;;;;;;5096111;27;20498;-63
2021/03/07 03:39:02;;;;;;;2.77;2.10;;;10.70;45.80;;;;;;5096512;28;20421;-64
2021/03/07 03:41:31;;;;;;;2.63;2.07;;;10.60;46.20;;;;;;5095914;28;20476;-64
2021/03/07 03:43:58;;;;;;;2.27;1.90;;;10.60;45.70;;;;;;5096392;27;20536;-64
2021/03/07 03:46:25;;;;;;;2.10;2.00;;;10.70;45.70;;;;;;5095840;28;20493;-63
2021/03/07 03:48:55;;;;;;;3.00;2.30;;;10.60;45.70;;;;;;5096110;28;20472;-64
2021/03/07 03:51:23;;;;;;;1.90;1.80;;;10.60;45.60;;;;;;5096085;28;20437;-64
2021/03/07 03:53:50;;;;;;;2.77;1.93;;;10.60;45.80;;;;;;5129762;27;20673;-63
2021/03/07 03:56:17;;;;;;;3.23;2.40;;;10.70;45.70;;;;;;5136222;27;20447;-64
2021/03/07 03:58:44;;;;;;;2.33;2.10;;;10.60;45.60;;;;;;5136834;27;20431;-64
2021/03/07 04:01:11;;;;;;;2.40;1.93;;;10.70;45.60;;;;;;5131890;27;20444;-64
2021/03/07 04:03:38;;;;;;;2.60;2.40;;;10.70;45.60;;;;;;5116369;27;20474;-63
2021/03/07 04:06:06;;;;;;;3.13;1.87;;;10.60;45.60;;;;;;5115545;28;20450;-63
2021/03/07 04:08:33;;;;;;;2.90;2.17;;;10.60;45.60;;;;;;5115864;28;20520;-63
2021/03/07 04:11:00;;;;;;;2.10;1.90;;;10.60;45.70;;;;;;5103592;28;20492;-64
2021/03/07 04:13:28;;;;;;;2.83;1.97;;;10.60;45.70;;;;;;5095635;28;20521;-64
2021/03/07 04:15:55;;;;;;;1.80;1.70;;;10.60;45.80;;;;;;5095015;28;20531;-64
2021/03/07 04:18:24;;;;;;;2.03;1.93;;;10.60;45.70;;;;;;5095259;28;20437;-64
2021/03/07 04:20:51;;;;;;;2.43;1.80;;;10.60;45.70;;;;;;5095277;28;20437;-63
2021/03/07 04:23:18;;;;;;;2.10;1.70;;;10.60;45.60;;;;;;5095343;28;20485;-64
2021/03/07 04:25:46;;;;;;;2.17;1.80;;;10.60;45.60;;;;;;5094639;28;20523;-63
2021/03/07 04:28:13;;;;;;;2.13;1.93;;;10.60;45.60;;;;;;5095674;27;20464;-64
2021/03/07 04:30:40;;;;;;;2.87;1.90;;;10.60;45.50;;;;;;5095292;28;20560;-64
2021/03/07 04:33:06;;;;;;;2.73;2.40;;;10.60;45.50;;;;;;5094888;28;20531;-63
2021/03/07 04:35:34;;;;;;;2.33;1.90;;;10.60;45.60;;;;;;5094527;28;20515;-63
2021/03/07 04:38:03;;;;;;;1.97;1.87;;;10.60;45.40;;;;;;5095197;28;20441;-63
2021/03/07 04:40:30;;;;;;;1.60;1.50;;;10.60;45.50;;;;;;5094950;28;20425;-64
2021/03/07 04:42:58;;;;;;;1.60;1.43;;;10.60;45.50;;;;;;5094930;28;20445;-64
2021/03/07 04:45:25;;;;;;;2.20;1.60;;;10.60;45.40;;;;;;5094651;27;20516;-63
2021/03/07 04:47:52;;;;;;;2.00;1.90;;;10.70;45.50;;;;;;5094522;28;20487;-64
2021/03/07 04:50:19;;;;;;;2.40;1.77;;;10.60;45.50;;;;;;5094603;28;20502;-63
2021/03/07 04:52:46;;;;;;;2.23;1.97;;;10.60;45.60;;;;;;5094640;28;20441;-64
2021/03/07 04:55:13;;;;;;;2.40;2.10;;;10.60;45.50;;;;;;5094450;27;20544;-64
2021/03/07 04:57:40;;;;;;;3.13;1.77;;;10.60;45.60;;;;;;5094634;28;20438;-64
2021/03/07 05:00:09;;;;;;;1.70;1.60;;;10.60;45.60;;;;;;5094459;28;20537;-64
2021/03/07 05:02:36;;;;;;;2.87;1.93;;;10.60;45.50;;;;;;5094406;28;20474;-64
2021/03/07 05:05:04;;;;;;;1.90;1.63;;;10.60;45.50;;;;;;5093334;28;20495;-64
2021/03/07 05:07:31;;;;;;;1.50;1.43;;;10.60;45.50;;;;;;5094616;28;20506;-64
2021/03/07 05:09:58;;;;;;;2.17;1.87;;;10.60;45.50;;;;;;5094419;28;20473;-64
2021/03/07 05:12:26;;;;;;;1.80;1.70;;;10.60;45.40;;;;;;5094520;28;20468;-64
2021/03/07 05:15:07;;;;;;;1.60;1.50;;;10.70;45.30;;;;;;5093600;28;20470;-64
2021/03/07 05:17:35;;;;;;;1.80;1.70;;;10.70;45.30;;;;;;5093999;28;20518;-64
2021/03/07 05:20:02;;;;;;;2.13;1.70;;;10.60;45.40;;;;;;5094428;28;20527;-64
2021/03/07 05:22:29;;;;;;;1.77;1.67;;;10.70;45.20;;;;;;5130684;27;20459;-64
2021/03/07 05:24:55;;;;;;;3.60;1.77;;;10.60;45.30;;;;;;5134905;27;20462;-64
2021/03/07 05:27:22;;;;;;;3.23;2.00;;;10.60;45.40;;;;;;5135466;27;20526;-64
2021/03/07 05:29:49;;;;;;;2.50;1.60;;;10.60;45.40;;;;;;5134119;27;20562;-63
2021/03/07 05:32:16;;;;;;;2.43;2.07;;;10.60;45.40;;;;;;5135131;27;20446;-64
2021/03/07 05:34:44;;;;;;;2.00;1.90;;;10.60;45.50;;;;;;5134134;27;20521;-65
2021/03/07 05:37:11;;;;;;;1.47;1.43;;;10.60;45.40;;;;;;5134006;27;20435;-64
2021/03/07 05:39:38;;;;;;;2.43;1.37;;;10.70;45.30;;;;;;5107248;27;20473;-64
2021/03/07 05:42:05;;;;;;;1.70;1.60;;;10.70;45.30;;;;;;5094088;28;20476;-64
2021/03/07 05:44:32;;;;;;;1.93;1.83;;;10.60;45.30;;;;;;5093283;28;20436;-64
2021/03/07 05:46:59;;;;;;;1.83;1.73;;;10.60;45.30;;;;;;5094160;28;20523;-64
2021/03/07 05:49:26;;;;;;;1.73;1.63;;;10.60;45.30;;;;;;5093435;28;20477;-64
2021/03/07 05:51:54;;;;;;;2.90;1.70;;;10.60;45.20;;;;;;5093762;28;20429;-64
2021/03/07 05:54:21;;;;;;;2.07;1.77;;;10.60;45.30;;;;;;5092648;28;20539;-64
2021/03/07 05:56:48;;;;;;;1.70;1.60;;;10.60;45.40;;;;;;5102448;28;20431;-64
2021/03/07 05:59:15;;;;;;;2.10;1.73;;;10.60;45.30;;;;;;5113990;28;20496;-64
2021/03/07 06:01:42;;;;;;;2.23;1.87;;;10.70;45.20;;;;;;5114006;28;20474;-64
2021/03/07 06:04:09;;;;;;;1.80;1.70;;;10.60;45.10;;;;;;5113658;28;20447;-64
2021/03/07 06:06:36;;;;;;;1.63;1.50;;;10.50;45.20;;;;;;5097267;28;20437;-64
2021/03/07 06:09:21;;;;;;;4.10;1.70;;;10.60;45.30;;;;;;5093408;28;20478;-64
2021/03/07 06:11:48;;;;;;;2.40;2.20;;;10.60;45.30;;;;;;5093116;28;20455;-64
2021/03/07 06:14:19;;;;;;;1.70;1.60;;;10.60;45.80;;;;;;5093674;28;20480;-64
2021/03/07 06:17:00;;;;;;;1.90;1.80;;;10.60;45.30;;;;;;5096496;28;20531;-64
2021/03/07 06:19:27;;;;;;;1.80;1.70;;;10.60;45.20;;;;;;5097530;28;20445;-64
2021/03/07 06:21:54;;;;;;;1.60;1.50;;;10.60;45.20;;;;;;5097203;28;20448;-64
2021/03/07 06:24:35;;;;;;;1.87;1.70;;;10.60;45.20;;;;;;5097277;27;20469;-63
2021/03/07 06:27:06;;;;;;;1.97;1.80;;;10.60;45.20;;;;;;5096984;28;20493;-63
2021/03/07 06:29:33;;;;;;;1.50;1.40;;;10.60;45.10;;;;;;5097310;28;20559;-64
2021/03/07 06:32:00;;;;;;;2.00;1.80;;;10.60;45.20;;;;;;5097535;27;20473;-64
2021/03/07 06:34:27;;;;;;;1.60;1.50;;;10.60;45.10;;;;;;5096950;28;20539;-64
2021/03/07 06:37:03;;;;;;;2.70;1.40;;;10.70;45.10;;;;;;5097005;28;20476;-63
2021/03/07 06:39:29;;;;;;;1.67;1.40;;;10.60;45.60;;;;;;5097502;28;20527;-64
2021/03/07 06:42:03;;;;;;;1.50;1.40;;;10.60;45.20;;;;;;5130139;27;20534;-64
2021/03/07 06:44:30;;;;;;;2.80;1.90;;;10.70;45.10;;;;;;5137484;27;20456;-64
2021/03/07 06:47:06;;;;;;;1.50;1.40;;;10.70;45.00;;;;;;5114919;27;20476;-64
2021/03/07 06:49:33;;;;;;;2.20;1.80;;;10.60;45.00;;;;;;5111236;27;20484;-64
2021/03/07 06:52:17;;;;;;;1.60;1.50;;;10.60;45.10;;;;;;5107986;28;20443;-64
2021/03/07 06:54:44;;;;;;;2.07;1.30;;;10.60;44.90;;;;;;5117231;28;20436;-64
2021/03/07 06:57:12;;;;;;;1.90;1.63;;;10.60;45.00;;;;;;5117636;28;20464;-64
2021/03/07 06:59:39;;;;;;;1.70;1.23;;;10.70;44.80;;;;;;5117076;28;20485;-64
2021/03/07 07:02:10;;;;;;;1.47;1.37;;;10.80;44.70;;;;;;5117098;28;20507;-64
2021/03/07 07:04:42;;;;;;;1.43;1.33;;;10.70;45.40;;;;;;5116863;28;20448;-64
2021/03/07 07:07:09;;;;;;;1.43;1.30;;;10.70;44.80;;;;;;5122200;27;20435;-64
2021/03/07 07:09:36;;;;;;;1.60;1.50;;;10.70;44.80;;;;;;5137858;27;20506;-64
2021/03/07 07:12:04;;;;;;;1.63;1.47;;;10.80;44.80;;;;;;5137622;27;20478;-64
2021/03/07 07:14:38;;;;;;;2.73;1.30;;;10.80;44.80;;;;;;5136814;27;20550;-64
2021/03/07 07:17:05;;;;;;;2.20;1.50;;;10.80;44.80;;;;;;5137169;27;20477;-64
2021/03/07 07:19:32;;;;;;;1.70;1.60;;;10.80;44.80;;;;;;5137790;27;20441;-64
2021/03/07 07:21:59;;;;;;;3.43;1.47;;;10.80;44.70;;;;;;5137244;27;20437;-65
2021/03/07 07:24:26;;;;;;;1.60;1.50;;;10.80;44.80;;;;;;5133202;27;20500;-64
2021/03/07 07:26:56;;;;;;;1.50;1.40;;;10.70;44.70;;;;;;5095336;28;20475;-64
2021/03/07 07:29:24;;;;;;;1.73;1.40;;;10.70;44.80;;;;;;5096504;28;20579;-64
2021/03/07 07:31:55;;;;;;;1.70;1.30;;;10.70;44.80;;;;;;5096395;28;20444;-64
2021/03/07 07:34:26;;;;;;;1.67;1.47;;;10.70;44.80;;;;;;5096062;28;20443;-64
2021/03/07 07:36:54;;;;;;;3.03;1.60;;;10.80;44.80;;;;;;5096281;28;20428;-64
2021/03/07 07:39:25;;;;;;;3.67;1.47;;;10.80;44.70;;;;;;5096005;28;20438;-64
2021/03/07 07:41:52;;;;;;;4.00;1.90;;;10.70;44.60;;;;;;5096153;28;20497;-64
2021/03/07 07:44:28;;;;;;;1.30;1.20;;;10.80;44.60;;;;;;5096031;27;20512;-64
2021/03/07 07:46:58;;;;;;;1.70;1.50;;;10.80;44.70;;;;;;5095791;28;20509;-64
2021/03/07 07:49:38;;;;;;;1.50;1.40;;;10.80;44.70;;;;;;5096007;28;20461;-64
2021/03/07 07:52:35;;;;;;;1.47;1.40;;;10.90;44.50;;;;;;5096150;27;20519;-64
2021/03/07 07:55:08;;;;;;;2.03;1.80;;;10.90;44.40;;;;;;5095566;28;20433;-64
2021/03/07 07:57:50;;;;;;;1.93;1.83;;;10.80;44.50;;;;;;5095838;28;20429;-64
2021/03/07 08:00:20;;;;;;;1.40;1.27;;;10.90;44.50;;;;;;5095894;28;20429;-64
2021/03/07 08:03:06;;;;;;;1.30;1.20;;;10.80;44.60;;;;;;5095388;28;20593;-66
2021/03/07 08:05:45;;;;;;;2.47;1.90;;;10.90;44.50;;;;;;5094641;28;20531;-64
2021/03/07 08:08:15;;;;;;;2.00;1.90;;;10.80;44.50;;;;;;5095436;28;20510;-64
2021/03/07 08:10:43;;;;;;;1.60;1.50;;;10.90;44.50;;;;;;5095490;27;20512;-64
2021/03/07 08:13:10;;;;;;;1.77;1.50;;;10.90;44.50;;;;;;5095698;28;20478;-64
2021/03/07 08:15:41;;;;;;;2.00;1.90;;;10.90;44.50;;;;;;5094941;28;20512;-64
2021/03/07 08:18:09;;;;;;;4.10;1.90;;;10.80;44.70;;;;;;5109356;27;20427;-64
2021/03/07 08:21:09;;;;;;;1.83;1.73;;;10.90;44.40;;;;;;5136301;27;20480;-63
2021/03/07 08:24:09;;;;;;;3.23;1.93;;;11.00;44.60;;;;;;5130957;27;20488;-64
2021/03/07 08:26:52;;;;;;;1.60;1.50;;;11.00;44.50;;;;;;5128608;27;20510;-63
2021/03/07 08:29:41;;;;;;;2.00;1.90;;;11.00;44.40;;;;;;5094929;28;20556;-69
2021/03/07 08:32:31;;;;;;;1.87;1.53;;;11.10;44.30;;;;;;5095156;28;20496;-65
2021/03/07 08:34:59;;;;;;;1.57;1.47;;;11.00;44.40;;;;;;5094234;28;20432;-64
2021/03/07 08:37:27;;;;;;;2.00;1.60;;;11.10;44.30;;;;;;5136363;27;20467;-64
2021/03/07 08:40:31;;;;;;;2.50;1.30;;;11.10;44.30;;;;;;5135700;27;20482;-63
2021/03/07 08:42:59;;;;;;;1.40;1.30;;;11.00;44.20;;;;;;5135600;27;20485;-64
2021/03/07 08:45:26;;;;;;;2.17;2.00;;;11.10;44.20;;;;;;5134733;27;20431;-64
2021/03/07 08:47:54;;;;;;;2.20;2.00;;;11.30;44.10;;;;;;5135741;27;20610;-64
2021/03/07 08:50:23;;;;;;;1.50;1.43;;;11.20;44.00;;;;;;5135346;27;20482;-64
2021/03/07 08:52:50;;;;;;;2.00;1.90;;;11.30;44.00;;;;;;5134946;27;20474;-64
2021/03/07 08:55:17;;;;;;;1.93;1.63;;;11.30;44.10;;;;;;5135094;27;20439;-64
2021/03/07 08:57:47;;;;;;;1.53;1.43;;;11.20;44.20;;;;;;5135647;27;20474;-64
2021/03/07 09:00:16;;;;;;;1.87;1.77;;;11.30;44.20;;;;;;5135457;27;20531;-64
2021/03/07 09:02:43;;;;;;;1.80;1.70;;;11.30;44.10;;;;;;5134843;27;20544;-64
2021/03/07 09:05:26;;;;;;;2.90;1.93;;;11.40;44.20;;;;;;5134865;27;20423;-64
2021/03/07 09:08:03;;;;;;;2.17;2.07;;;11.40;44.00;;;;;;5135674;27;20503;-64
2021/03/07 09:10:32;;;;;;;2.20;1.93;;;11.50;43.70;;;;;;5134313;27;20509;-64
2021/03/07 09:13:09;;;;;;;2.20;2.00;;;11.50;43.60;;;;;;5094416;28;20493;-64
2021/03/07 09:15:37;;;;;;;1.80;1.43;;;11.50;43.70;;;;;;5093759;28;20467;-64
2021/03/07 09:18:05;;;;;;;6.40;1.80;;;11.50;43.70;;;;;;5094248;28;20447;-64
2021/03/07 09:20:42;;;;;;;4.20;1.87;;;11.50;43.80;;;;;;5105001;28;20440;-64
2021/03/07 09:23:25;;;;;;;2.00;1.90;;;11.60;43.70;;;;;;5114429;28;20435;-64
2021/03/07 09:25:52;;;;;;;1.97;1.80;;;11.50;43.70;;;;;;5114077;28;20531;-63
2021/03/07 09:28:37;;;;;;;2.10;1.90;;;11.60;43.80;;;;;;5115651;28;20436;-64
2021/03/07 09:31:05;;;;;;;1.50;1.40;;;11.70;43.70;;;;;;5135108;27;20431;-64
2021/03/07 09:33:32;;;;;;;1.57;1.47;;;11.70;43.70;;;;;;5134918;27;20446;-64
2021/03/07 09:36:09;;;;;;;1.80;1.70;;;11.80;43.60;;;;;;5134498;27;20442;-64
2021/03/07 09:38:48;;;;;;;2.07;1.90;;;11.80;43.50;;;;;;5107623;27;20437;-64
2021/03/07 09:41:17;;;;;;;2.10;2.00;;;11.80;43.50;;;;;;5093534;28;20488;-64
2021/03/07 09:43:45;;;;;;;1.93;1.83;;;11.90;43.60;;;;;;5093850;28;20498;-64
2021/03/07 09:46:12;;;;;;;5.03;1.97;;;12.00;43.30;;;;;;5093777;28;20436;-64
2021/03/07 09:48:39;;;;;;;2.30;1.60;;;12.00;43.30;;;;;;5093781;28;20448;-64
2021/03/07 09:51:10;;;;;;;2.87;2.20;;;12.20;43.00;;;;;;5093453;28;20406;-64
2021/03/07 09:53:37;;;;;;;2.40;2.20;;;12.80;42.50;;;;;;5093520;28;20488;-64
2021/03/07 09:56:06;;;;;;;2.00;1.90;;;13.30;41.70;;;;;;5093062;28;20440;-64
2021/03/07 09:58:39;;;;;;;2.03;1.93;;;13.60;41.20;;;;;;5093736;28;20531;-64
2021/03/07 10:01:06;;;;;;;2.00;1.90;;;13.80;41.00;;;;;;5093877;28;20474;-64
2021/03/07 10:03:33;;;;;;;1.90;1.80;;;13.90;40.90;;;;;;5093753;28;20447;-64
2021/03/07 10:06:09;;;;;;;2.40;2.13;;;13.90;41.10;;;;;;5093351;28;20432;-64
2021/03/07 10:08:36;;;;;;;1.93;1.83;;;13.70;41.10;;;;;;5093622;28;20436;-64
2021/03/07 10:11:11;;;;;;;2.10;1.97;;;13.80;41.20;;;;;;5093505;28;20477;-64
2021/03/07 10:13:38;;;;;;;1.90;1.80;;;13.80;41.20;;;;;;5093474;28;20523;-64
2021/03/07 10:16:06;;;;;;;4.13;2.47;;;13.80;41.40;;;;;;5092880;28;20532;-64
2021/03/07 10:18:37;;;;;;;2.73;2.27;;;13.90;41.30;;;;;;5093517;28;20445;-64
2021/03/07 10:21:06;;;;;;;2.20;2.10;;;13.90;41.50;;;;;;5093441;28;20429;-64
2021/03/07 10:23:34;;;;;;;3.13;2.30;;;14.00;41.30;;;;;;5093556;28;20437;-64
2021/03/07 10:26:01;;;;;;;2.43;2.03;;;14.00;41.20;;;;;;5092713;28;20445;-64
2021/03/07 10:28:33;;;;;;;3.00;2.80;;;14.00;41.30;;;;;;5093203;28;20540;-64
2021/03/07 10:31:07;;;;;;;2.90;2.70;;;14.00;41.30;;;;;;5108583;28;20534;-64
2021/03/07 10:33:34;;;;;;;2.73;2.50;;;14.20;41.20;;;;;;5134170;27;20458;-64
2021/03/07 10:36:06;;;;;;;3.20;2.63;;;14.40;40.90;;;;;;5133637;27;20434;-64
2021/03/07 10:38:33;;;;;;;3.70;2.40;;;14.60;40.70;;;;;;5133889;27;20439;-64
2021/03/07 10:41:16;;;;;;;3.20;3.00;;;14.50;40.70;;;;;;5133712;27;20427;-64
2021/03/07 10:43:47;;;;;;;3.00;2.80;;;14.70;40.60;;;;;;5134067;27;20531;-64
2021/03/07 10:46:28;;;;;;;3.40;3.10;;;14.80;40.40;;;;;;5133369;27;20454;-64
2021/03/07 10:49:14;;;;;;;3.40;2.90;;;15.00;40.20;;;;;;5133673;27;20466;-64
2021/03/07 10:51:42;;;;;;;3.27;3.00;;;15.10;40.00;;;;;;5133807;27;20527;-64
2021/03/07 10:54:08;;;;;;;3.20;2.90;;;15.00;40.10;;;;;;5133514;27;20466;-64
2021/03/07 10:56:37;;;;;;;3.60;2.77;;;15.00;40.40;;;;;;5134034;27;20504;-64
2021/03/07 10:59:05;;;;;;;3.30;2.93;;;15.20;40.30;;;;;;5133260;27;20446;-64
2021/03/07 11:01:32;;;;;;;2.90;2.60;;;15.30;40.40;;;;;;5133319;27;20439;-64
2021/03/07 11:03:59;;;;;;;6.87;2.80;;;15.30;40.20;;;;;;5136976;27;20470;-64
2021/03/07 11:06:26;;;;;;;5.70;2.60;;;15.40;40.10;;;;;;5122066;27;20432;-64
2021/03/07 11:08:53;;;;;;;5.83;3.23;;;15.30;40.10;;;;;;5097081;28;20519;-64
2021/03/07 11:11:19;;;;;;;4.00;2.70;;;15.10;40.50;;;;;;5096677;28;20445;-64
2021/03/07 11:13:47;;;;;;;5.07;2.80;;;14.90;41.20;;;;;;5097537;28;20463;-64
2021/03/07 11:16:14;;;;;;;3.90;3.00;;;14.70;41.60;;;;;;5096964;28;20460;-63
2021/03/07 11:18:42;;;;;;;3.77;3.20;;;14.60;41.60;;;;;;5097000;28;20463;-63
2021/03/07 11:21:09;;;;;;;5.53;3.63;;;14.50;41.80;;;;;;5096760;28;20436;-64
2021/03/07 11:23:36;;;;;;;6.13;3.60;;;14.40;42.20;;;;;;5102895;27;20443;-63
2021/03/07 11:26:04;;;;;;;5.07;3.93;;;14.30;42.40;;;;;;5136617;27;20446;-63
2021/03/07 11:28:30;;;;;;;3.83;3.40;;;14.10;42.80;;;;;;5136987;27;20485;-63
2021/03/07 11:30:57;;;;;;;3.87;3.33;;;14.20;42.80;;;;;;5136859;27;20505;-64
2021/03/07 11:33:25;;;;;;;3.73;3.43;;;14.10;42.80;;;;;;5136730;27;20435;-64
2021/03/07 11:35:53;;;;;;;3.57;3.27;;;14.10;42.80;;;;;;5136617;27;20450;-64
2021/03/07 11:38:20;;;;;;;6.10;3.90;;;14.00;42.80;;;;;;5137190;27;20465;-63
2021/03/07 11:40:47;;;;;;;4.73;2.93;;;14.00;43.60;;;;;;5137231;27;20431;-63
2021/03/07 11:43:14;;;;;;;4.77;3.37;;;14.00;43.00;;;;;;5135844;27;20526;-63
2021/03/07 11:45:41;;;;;;;4.40;4.00;;;14.00;43.20;;;;;;5136375;27;20466;-63
2021/03/07 11:48:09;;;;;;;3.60;3.30;;;14.00;43.30;;;;;;5136837;27;20458;-63
2021/03/07 11:50:37;;;;;;;4.57;3.33;;;14.00;43.50;;;;;;5135945;27;20489;-64
2021/03/07 11:53:04;;;;;;;3.50;3.20;;;13.90;43.60;;;;;;5136786;27;20462;-64
2021/03/07 11:55:31;;;;;;;3.70;3.13;;;13.90;43.70;;;;;;5136499;27;20521;-66
2021/03/07 11:57:58;;;;;;;4.00;3.70;;;13.90;43.90;;;;;;5136629;27;20482;-65
2021/03/07 12:00:26;;;;;;;6.80;3.70;;;13.80;44.10;;;;;;5136095;27;20467;-66
2021/03/07 12:02:52;;;;;;;3.60;3.30;;;13.80;44.20;;;;;;5137113;27;20439;-64
2021/03/07 12:05:20;;;;;;;5.43;3.77;;;13.70;44.20;;;;;;5136073;27;20434;-64
2021/03/07 12:07:47;;;;;;;4.23;3.80;;;13.70;44.20;;;;;;5132070;27;20467;-64
2021/03/07 12:10:14;;;;;;;3.70;3.30;;;13.80;44.30;;;;;;5094921;28;20464;-64
2021/03/07 12:12:41;;;;;;;3.47;3.17;;;13.70;44.50;;;;;;5095587;28;20510;-63
2021/03/07 12:15:09;;;;;;;7.00;3.57;;;13.70;44.60;;;;;;5094628;28;20480;-64
2021/03/07 12:17:36;;;;;;;3.13;2.93;;;13.70;44.40;;;;;;5106426;28;20448;-66
2021/03/07 12:20:06;;;;;;;5.80;4.00;;;13.80;44.70;;;;;;5115693;28;20500;-64
2021/03/07 12:22:33;;;;;;;4.37;3.97;;;13.70;44.60;;;;;;5115744;28;20463;-64
2021/03/07 12:25:00;;;;;;;5.00;4.20;;;13.70;44.80;;;;;;5115254;27;20444;-64
2021/03/07 12:27:27;;;;;;;6.10;4.20;;;13.60;44.80;;;;;;5097660;28;20494;-66
2021/03/07 12:29:54;;;;;;;5.17;4.40;;;13.70;44.80;;;;;;5095374;28;20559;-63
2021/03/07 12:32:21;;;;;;;4.83;3.83;;;13.60;44.80;;;;;;5094829;28;20468;-64
2021/03/07 12:34:48;;;;;;;4.53;4.00;;;13.60;45.00;;;;;;5095307;27;20451;-64
2021/03/07 12:37:15;;;;;;;4.33;3.97;;;13.60;45.00;;;;;;5094566;28;20490;-64
2021/03/07 12:39:42;;;;;;;5.97;4.30;;;13.60;45.00;;;;;;5094949;28;20523;-64
2021/03/07 12:42:09;;;;;;;5.50;4.20;;;13.50;45.30;;;;;;5095092;28;20523;-63
2021/03/07 12:44:36;;;;;;;5.63;4.23;;;13.50;45.40;;;;;;5094715;28;20475;-64
2021/03/07 12:47:03;;;;;;;6.97;4.73;;;13.50;45.40;;;;;;5094815;28;20479;-64
2021/03/07 12:49:31;;;;;;;6.23;4.33;;;13.60;45.40;;;;;;5094539;28;20487;-65
2021/03/07 12:51:58;;;;;;;6.30;4.90;;;13.50;45.40;;;;;;5095072;28;20491;-64
2021/03/07 12:54:25;;;;;;;4.37;3.93;;;13.50;45.50;;;;;;5094219;28;20516;-64
2021/03/07 12:56:52;;;;;;;5.10;4.57;;;13.50;45.50;;;;;;5094571;28;20483;-66